sensor_id;sensor_type;location;lat;lon;timestamp;pressure;altitude;pressure_sealevel;temperature;humidity
65276;BME280;51875;49.994;14.052;2023-01-29T00:00:39;99501.81;;;-2.33;100.00
65276;BME280;51875;49.994;14.052;2023-01-29T00:02:15;99501.28;;;-2.03;100.00
65276;BME280;51875;49.994;14.052;2023-01-29T00:03:31;99502.25;;;-2.01;100.00
65276;BME280;51875;49.994;14.052;2023-01-29T00:04:47;99504.25;;;-2.15;100.00
65276;BME280;51875;49.994;14.052;2023-01-29T00:06:04;99500.84;;;-2.14;100.00
65276;BME280;51875;49.994;14.052;2023-01-29T00:07:21;99501.28;;;-2.24;100.00
65276;BME280;51875;49.994;14.052;2023-01-29T00:08:37;99506.19;;;-2.09;100.00
65276;BME280;51875;49.994;14.052;2023-01-29T00:09:53;99505.34;;;-1.87;100.00
65276;BME280;51875;49.994;14.052;2023-01-29T00:11:09;99511.03;;;-1.73;100.00
65276;BME280;51875;49.994;14.052;2023-01-29T00:12:25;99504.41;;;-1.89;100.00
65276;BME280;51875;49.994;14.052;2023-01-29T00:13:41;99497.81;;;-1.82;100.00
65276;BME280;51875;49.994;14.052;2023-01-29T00:14:57;99490.59;;;-1.69;100.00
65276;BME280;51875;49.994;14.052;2023-01-29T00:16:12;99495.22;;;-2.05;100.00
65276;BME280;51875;49.994;14.052;2023-01-29T00:17:28;99494.25;;;-1.86;100.00
65276;BME280;51875;49.994;14.052;2023-01-29T00:18:44;99486.66;;;-2.05;100.00
65276;BME280;51875;49.994;14.052;2023-01-29T00:19:59;99493.56;;;-2.03;100.00
65276;BME280;51875;49.994;14.052;2023-01-29T00:21:17;99491.16;;;-2.00;100.00
65276;BME280;51875;49.994;14.052;2023-01-29T00:22:33;99496.03;;;-2.27;100.00
65276;BME280;51875;49.994;14.052;2023-01-29T00:23:49;99495.28;;;-2.03;100.00
65276;BME280;51875;49.994;14.052;2023-01-29T00:25:06;99496.28;;;-2.00;100.00
65276;BME280;51875;49.994;14.052;2023-01-29T00:26:21;99492.72;;;-2.03;100.00
65276;BME280;51875;49.994;14.052;2023-01-29T00:27:37;99493.94;;;-2.16;100.00
65276;BME280;51875;49.994;14.052;2023-01-29T00:28:53;99490.66;;;-1.91;100.00
65276;BME280;51875;49.994;14.052;2023-01-29T00:30:10;99480.66;;;-1.83;100.00
65276;BME280;51875;49.994;14.052;2023-01-29T00:31:28;99478.88;;;-2.07;100.00
65276;BME280;51875;49.994;14.052;2023-01-29T00:32:44;99476.38;;;-2.05;100.00
65276;BME280;51875;49.994;14.052;2023-01-29T00:34:00;99486.22;;;-1.95;100.00
65276;BME280;51875;49.994;14.052;2023-01-29T00:35:15;99482.34;;;-1.83;100.00
65276;BME280;51875;49.994;14.052;2023-01-29T00:36:31;99482.94;;;-1.91;100.00
65276;BME280;51875;49.994;14.052;2023-01-29T00:37:47;99481.09;;;-1.95;100.00
65276;BME280;51875;49.994;14.052;2023-01-29T00:39:02;99491.97;;;-1.78;100.00
65276;BME280;51875;49.994;14.052;2023-01-29T00:40:26;99485.56;;;-1.66;100.00
65276;BME280;51875;49.994;14.052;2023-01-29T00:41:42;99485.09;;;-1.79;100.00
65276;BME280;51875;49.994;14.052;2023-01-29T00:43:16;99497.00;;;-1.81;100.00
65276;BME280;51875;49.994;14.052;2023-01-29T00:44:50;99492.03;;;-1.99;100.00
65276;BME280;51875;49.994;14.052;2023-01-29T00:46:12;99486.25;;;-1.93;100.00
65276;BME280;51875;49.994;14.052;2023-01-29T00:47:27;99492.38;;;-1.90;100.00
65276;BME280;51875;49.994;14.052;2023-01-29T00:48:47;99488.13;;;-1.89;100.00
65276;BME280;51875;49.994;14.052;2023-01-29T00:50:08;99492.81;;;-1.79;100.00
65276;BME280;51875;49.994;14.052;2023-01-29T00:51:25;99487.31;;;-1.65;100.00
65276;BME280;51875;49.994;14.052;2023-01-29T00:52:40;99480.53;;;-1.63;100.00
65276;BME280;51875;49.994;14.052;2023-01-29T00:53:56;99490.03;;;-2.06;100.00
65276;BME280;51875;49.994;14.052;2023-01-29T00:55:12;99484.38;;;-1.75;100.00
65276;BME280;51875;49.994;14.052;2023-01-29T00:56:28;99487.84;;;-1.74;100.00
65276;BME280;51875;49.994;14.052;2023-01-29T00:57:45;99491.78;;;-1.82;100.00
65276;BME280;51875;49.994;14.052;2023-01-29T00:59:01;99495.56;;;-1.51;100.00
65276;BME280;51875;49.994;14.052;2023-01-29T01:00:17;99490.44;;;-1.51;100.00
65276;BME280;51875;49.994;14.052;2023-01-29T01:01:33;99491.06;;;-1.57;100.00
65276;BME280;51875;49.994;14.052;2023-01-29T01:03:09;99486.59;;;-1.61;100.00
65276;BME280;51875;49.994;14.052;2023-01-29T01:04:26;99495.72;;;-1.47;100.00
65276;BME280;51875;49.994;14.052;2023-01-29T01:05:41;99489.94;;;-1.41;100.00
65276;BME280;51875;49.994;14.052;2023-01-29T01:06:58;99474.59;;;-1.39;100.00
65276;BME280;51875;49.994;14.052;2023-01-29T01:08:13;99468.56;;;-1.40;100.00
65276;BME280;51875;49.994;14.052;2023-01-29T01:09:49;99459.88;;;-1.89;100.00
65276;BME280;51875;49.994;14.052;2023-01-29T01:11:23;99462.28;;;-1.94;100.00
65276;BME280;51875;49.994;14.052;2023-01-29T01:12:38;99463.78;;;-1.99;100.00
65276;BME280;51875;49.994;14.052;2023-01-29T01:13:54;99463.00;;;-2.19;100.00
65276;BME280;51875;49.994;14.052;2023-01-29T01:15:17;99465.63;;;-2.18;100.00
65276;BME280;51875;49.994;14.052;2023-01-29T01:16:32;99471.91;;;-2.11;100.00
65276;BME280;51875;49.994;14.052;2023-01-29T01:17:52;99470.25;;;-2.09;100.00
65276;BME280;51875;49.994;14.052;2023-01-29T01:19:08;99471.50;;;-2.20;100.00
65276;BME280;51875;49.994;14.052;2023-01-29T01:20:26;99472.00;;;-2.08;100.00
65276;BME280;51875;49.994;14.052;2023-01-29T01:21:41;99469.00;;;-1.97;100.00
65276;BME280;51875;49.994;14.052;2023-01-29T01:23:03;99464.59;;;-2.00;100.00
65276;BME280;51875;49.994;14.052;2023-01-29T01:24:18;99463.44;;;-2.08;100.00
65276;BME280;51875;49.994;14.052;2023-01-29T01:25:35;99458.03;;;-2.37;100.00
65276;BME280;51875;49.994;14.052;2023-01-29T01:26:51;99461.97;;;-2.46;100.00
65276;BME280;51875;49.994;14.052;2023-01-29T01:28:10;99460.75;;;-2.54;100.00
65276;BME280;51875;49.994;14.052;2023-01-29T01:29:26;99468.59;;;-2.30;100.00
65276;BME280;51875;49.994;14.052;2023-01-29T01:30:41;99465.13;;;-2.09;100.00
65276;BME280;51875;49.994;14.052;2023-01-29T01:31:57;99468.09;;;-2.21;100.00
65276;BME280;51875;49.994;14.052;2023-01-29T01:33:13;99473.03;;;-2.25;100.00
65276;BME280;51875;49.994;14.052;2023-01-29T01:34:29;99468.41;;;-2.13;100.00
65276;BME280;51875;49.994;14.052;2023-01-29T01:35:45;99465.88;;;-2.11;100.00
65276;BME280;51875;49.994;14.052;2023-01-29T01:37:00;99465.53;;;-1.98;100.00
65276;BME280;51875;49.994;14.052;2023-01-29T01:38:16;99465.53;;;-1.98;100.00
65276;BME280;51875;49.994;14.052;2023-01-29T01:39:31;99467.47;;;-1.92;100.00
65276;BME280;51875;49.994;14.052;2023-01-29T01:40:47;99466.34;;;-1.99;100.00
65276;BME280;51875;49.994;14.052;2023-01-29T01:42:05;99465.16;;;-1.86;100.00
65276;BME280;51875;49.994;14.052;2023-01-29T01:43:20;99468.88;;;-1.78;100.00
65276;BME280;51875;49.994;14.052;2023-01-29T01:44:57;99471.16;;;-1.86;100.00
65276;BME280;51875;49.994;14.052;2023-01-29T01:46:14;99471.16;;;-1.86;100.00
65276;BME280;51875;49.994;14.052;2023-01-29T01:50:21;99472.44;;;-1.74;100.00
65276;BME280;51875;49.994;14.052;2023-01-29T01:51:41;99468.59;;;-1.86;100.00
65276;BME280;51875;49.994;14.052;2023-01-29T01:53:03;99465.44;;;-1.78;100.00
65276;BME280;51875;49.994;14.052;2023-01-29T01:54:27;99473.50;;;-1.92;100.00
65276;BME280;51875;49.994;14.052;2023-01-29T01:55:49;99463.56;;;-2.05;100.00
65276;BME280;51875;49.994;14.052;2023-01-29T01:57:10;99457.84;;;-1.98;100.00
65276;BME280;51875;49.994;14.052;2023-01-29T01:58:36;99463.97;;;-1.94;100.00
65276;BME280;51875;49.994;14.052;2023-01-29T01:59:58;99458.63;;;-2.01;100.00
65276;BME280;51875;49.994;14.052;2023-01-29T02:01:15;99462.50;;;-2.10;100.00
65276;BME280;51875;49.994;14.052;2023-01-29T02:02:32;99461.56;;;-2.13;100.00
65276;BME280;51875;49.994;14.052;2023-01-29T02:04:09;99463.16;;;-2.16;100.00
65276;BME280;51875;49.994;14.052;2023-01-29T02:05:46;99459.53;;;-1.99;100.00
65276;BME280;51875;49.994;14.052;2023-01-29T02:07:21;99456.13;;;-2.42;100.00
65276;BME280;51875;49.994;14.052;2023-01-29T02:08:59;99454.25;;;-2.24;100.00
65276;BME280;51875;49.994;14.052;2023-01-29T02:10:41;99454.78;;;-2.33;100.00
65276;BME280;51875;49.994;14.052;2023-01-29T02:11:57;99456.25;;;-2.38;100.00
65276;BME280;51875;49.994;14.052;2023-01-29T02:13:13;99452.13;;;-2.35;100.00
65276;BME280;51875;49.994;14.052;2023-01-29T02:14:35;99457.88;;;-2.62;100.00
65276;BME280;51875;49.994;14.052;2023-01-29T02:15:53;99454.47;;;-2.41;100.00
65276;BME280;51875;49.994;14.052;2023-01-29T02:17:17;99456.75;;;-2.47;100.00
65276;BME280;51875;49.994;14.052;2023-01-29T02:18:33;99455.00;;;-2.48;100.00
65276;BME280;51875;49.994;14.052;2023-01-29T02:20:07;99461.69;;;-2.31;100.00
65276;BME280;51875;49.994;14.052;2023-01-29T02:21:46;99454.88;;;-2.51;100.00
65276;BME280;51875;49.994;14.052;2023-01-29T02:25:00;99441.81;;;-2.36;100.00
65276;BME280;51875;49.994;14.052;2023-01-29T02:26:43;99441.66;;;-2.18;100.00
65276;BME280;51875;49.994;14.052;2023-01-29T02:29:23;99440.31;;;-2.31;100.00
65276;BME280;51875;49.994;14.052;2023-01-29T02:31:34;99448.13;;;-2.28;100.00
65276;BME280;51875;49.994;14.052;2023-01-29T02:33:04;99453.69;;;-2.38;100.00
65276;BME280;51875;49.994;14.052;2023-01-29T02:37:53;99441.94;;;-2.33;100.00
65276;BME280;51875;49.994;14.052;2023-01-29T02:40:46;99452.94;;;-2.36;100.00
65276;BME280;51875;49.994;14.052;2023-01-29T02:42:11;99451.13;;;-2.38;100.00
65276;BME280;51875;49.994;14.052;2023-01-29T02:43:41;99446.69;;;-2.43;100.00
65276;BME280;51875;49.994;14.052;2023-01-29T02:45:05;99452.63;;;-2.44;100.00
65276;BME280;51875;49.994;14.052;2023-01-29T02:48:17;99457.56;;;-2.48;100.00
65276;BME280;51875;49.994;14.052;2023-01-29T02:50:57;99455.41;;;-2.60;100.00
65276;BME280;51875;49.994;14.052;2023-01-29T02:52:35;99460.94;;;-2.71;100.00
65276;BME280;51875;49.994;14.052;2023-01-29T02:54:05;99462.47;;;-2.54;100.00
65276;BME280;51875;49.994;14.052;2023-01-29T02:55:40;99459.13;;;-2.52;100.00
65276;BME280;51875;49.994;14.052;2023-01-29T02:57:20;99462.66;;;-2.50;100.00
65276;BME280;51875;49.994;14.052;2023-01-29T02:58:54;99459.50;;;-2.43;100.00
65276;BME280;51875;49.994;14.052;2023-01-29T03:00:18;99468.66;;;-2.49;100.00
65276;BME280;51875;49.994;14.052;2023-01-29T03:01:39;99475.28;;;-2.76;100.00
65276;BME280;51875;49.994;14.052;2023-01-29T03:03:06;99479.00;;;-2.67;100.00
65276;BME280;51875;49.994;14.052;2023-01-29T03:04:35;99480.75;;;-2.66;100.00
65276;BME280;51875;49.994;14.052;2023-01-29T03:06:11;99480.28;;;-2.79;100.00
65276;BME280;51875;49.994;14.052;2023-01-29T03:07:37;99484.41;;;-2.61;100.00
65276;BME280;51875;49.994;14.052;2023-01-29T03:09:09;99484.41;;;-2.61;100.00
65276;BME280;51875;49.994;14.052;2023-01-29T03:10:35;99479.69;;;-2.72;100.00
65276;BME280;51875;49.994;14.052;2023-01-29T03:11:55;99481.53;;;-2.69;100.00
65276;BME280;51875;49.994;14.052;2023-01-29T03:13:20;99481.66;;;-2.45;100.00
65276;BME280;51875;49.994;14.052;2023-01-29T03:14:40;99477.56;;;-2.82;100.00
65276;BME280;51875;49.994;14.052;2023-01-29T03:16:26;99478.72;;;-2.95;100.00
65276;BME280;51875;49.994;14.052;2023-01-29T03:18:06;99479.41;;;-2.99;100.00
65276;BME280;51875;49.994;14.052;2023-01-29T03:19:33;99478.44;;;-2.81;100.00
65276;BME280;51875;49.994;14.052;2023-01-29T03:20:54;99476.41;;;-2.69;100.00
65276;BME280;51875;49.994;14.052;2023-01-29T03:22:13;99473.03;;;-2.68;100.00
65276;BME280;51875;49.994;14.052;2023-01-29T03:23:34;99481.66;;;-2.66;100.00
65276;BME280;51875;49.994;14.052;2023-01-29T03:25:09;99480.72;;;-2.88;100.00
65276;BME280;51875;49.994;14.052;2023-01-29T03:26:44;99475.09;;;-2.59;100.00
65276;BME280;51875;49.994;14.052;2023-01-29T03:28:20;99469.28;;;-2.55;100.00
65276;BME280;51875;49.994;14.052;2023-01-29T03:29:54;99470.19;;;-2.53;100.00
65276;BME280;51875;49.994;14.052;2023-01-29T03:31:31;99472.78;;;-2.53;100.00
65276;BME280;51875;49.994;14.052;2023-01-29T03:33:08;99469.38;;;-2.52;100.00
65276;BME280;51875;49.994;14.052;2023-01-29T03:34:27;99466.19;;;-2.67;100.00
65276;BME280;51875;49.994;14.052;2023-01-29T03:36:02;99475.03;;;-2.39;100.00
65276;BME280;51875;49.994;14.052;2023-01-29T03:37:30;99466.03;;;-2.51;100.00
65276;BME280;51875;49.994;14.052;2023-01-29T03:38:49;99465.22;;;-2.50;100.00
65276;BME280;51875;49.994;14.052;2023-01-29T03:40:06;99460.03;;;-2.51;100.00
65276;BME280;51875;49.994;14.052;2023-01-29T03:41:32;99470.28;;;-2.30;100.00
65276;BME280;51875;49.994;14.052;2023-01-29T03:46:40;99459.63;;;-2.18;100.00
65276;BME280;51875;49.994;14.052;2023-01-29T03:48:07;99464.81;;;-2.17;100.00
65276;BME280;51875;49.994;14.052;2023-01-29T03:51:20;99451.59;;;-2.05;100.00
65276;BME280;51875;49.994;14.052;2023-01-29T03:52:43;99455.44;;;-2.16;100.00
65276;BME280;51875;49.994;14.052;2023-01-29T03:54:07;99452.09;;;-2.14;100.00
65276;BME280;51875;49.994;14.052;2023-01-29T03:57:15;99448.72;;;-2.13;100.00
65276;BME280;51875;49.994;14.052;2023-01-29T03:58:46;99452.84;;;-1.95;100.00
65276;BME280;51875;49.994;14.052;2023-01-29T04:00:16;99452.22;;;-2.10;100.00
65276;BME280;51875;49.994;14.052;2023-01-29T04:01:45;99450.47;;;-2.11;100.00
65276;BME280;51875;49.994;14.052;2023-01-29T04:03:13;99453.75;;;-2.16;100.00
65276;BME280;51875;49.994;14.052;2023-01-29T04:04:32;99455.88;;;-2.05;100.00
65276;BME280;51875;49.994;14.052;2023-01-29T04:05:57;99453.41;;;-2.02;100.00
65276;BME280;51875;49.994;14.052;2023-01-29T04:07:20;99454.03;;;-2.08;100.00
65276;BME280;51875;49.994;14.052;2023-01-29T04:08:50;99449.53;;;-2.14;100.00
65276;BME280;51875;49.994;14.052;2023-01-29T04:10:22;99452.22;;;-2.10;100.00
65276;BME280;51875;49.994;14.052;2023-01-29T04:11:44;99454.22;;;-2.03;100.00
65276;BME280;51875;49.994;14.052;2023-01-29T04:13:05;99445.94;;;-1.96;100.00
65276;BME280;51875;49.994;14.052;2023-01-29T04:14:22;99437.44;;;-1.95;100.00
65276;BME280;51875;49.994;14.052;2023-01-29T04:15:43;99445.16;;;-1.95;100.00
65276;BME280;51875;49.994;14.052;2023-01-29T04:17:10;99450.34;;;-2.15;100.00
65276;BME280;51875;49.994;14.052;2023-01-29T04:18:26;99447.34;;;-2.04;100.00
65276;BME280;51875;49.994;14.052;2023-01-29T04:19:42;99445.72;;;-2.02;100.00
65276;BME280;51875;49.994;14.052;2023-01-29T04:20:59;99436.97;;;-2.07;100.00
65276;BME280;51875;49.994;14.052;2023-01-29T04:22:25;99442.41;;;-2.00;100.00
65276;BME280;51875;49.994;14.052;2023-01-29T04:23:42;99436.16;;;-2.06;100.00
65276;BME280;51875;49.994;14.052;2023-01-29T04:25:07;99428.69;;;-2.00;100.00
65276;BME280;51875;49.994;14.052;2023-01-29T04:28:19;99423.72;;;-2.39;100.00
65276;BME280;51875;49.994;14.052;2023-01-29T04:29:44;99423.59;;;-2.21;100.00
65276;BME280;51875;49.994;14.052;2023-01-29T04:31:11;99420.28;;;-2.19;100.00
65276;BME280;51875;49.994;14.052;2023-01-29T04:32:36;99422.97;;;-2.16;100.00
65276;BME280;51875;49.994;14.052;2023-01-29T04:34:22;99422.50;;;-2.05;100.00
65276;BME280;51875;49.994;14.052;2023-01-29T04:42:11;99412.09;;;-2.31;100.00
65276;BME280;51875;49.994;14.052;2023-01-29T04:43:44;99409.28;;;-2.16;100.00
65276;BME280;51875;49.994;14.052;2023-01-29T04:46:45;99413.72;;;-2.10;100.00
65276;BME280;51875;49.994;14.052;2023-01-29T04:50:22;99408.56;;;-2.12;100.00
65276;BME280;51875;49.994;14.052;2023-01-29T04:51:57;99409.22;;;-1.95;100.00
65276;BME280;51875;49.994;14.052;2023-01-29T04:54:59;99402.69;;;-2.09;100.00
65276;BME280;51875;49.994;14.052;2023-01-29T04:56:31;99410.88;;;-2.41;100.00
65276;BME280;51875;49.994;14.052;2023-01-29T04:58:16;99413.72;;;-2.33;100.00
65276;BME280;51875;49.994;14.052;2023-01-29T04:59:41;99412.47;;;-2.22;100.00
65276;BME280;51875;49.994;14.052;2023-01-29T05:00:57;99405.09;;;-2.35;100.00
65276;BME280;51875;49.994;14.052;2023-01-29T05:02:14;99411.50;;;-2.47;100.00
65276;BME280;51875;49.994;14.052;2023-01-29T05:03:31;99414.69;;;-2.52;100.00
65276;BME280;51875;49.994;14.052;2023-01-29T05:04:48;99415.81;;;-2.67;100.00
65276;BME280;51875;49.994;14.052;2023-01-29T05:06:07;99407.06;;;-2.51;100.00
65276;BME280;51875;49.994;14.052;2023-01-29T05:07:25;99403.59;;;-2.30;100.00
65276;BME280;51875;49.994;14.052;2023-01-29T05:08:43;99395.19;;;-2.26;100.00
65276;BME280;51875;49.994;14.052;2023-01-29T05:10:02;99392.06;;;-2.19;100.00
65276;BME280;51875;49.994;14.052;2023-01-29T05:11:18;99391.31;;;-2.16;100.00
65276;BME280;51875;49.994;14.052;2023-01-29T05:12:36;99397.06;;;-2.22;100.00
65276;BME280;51875;49.994;14.052;2023-01-29T05:13:53;99390.88;;;-2.27;100.00
65276;BME280;51875;49.994;14.052;2023-01-29T05:15:13;99389.25;;;-2.25;100.00
65276;BME280;51875;49.994;14.052;2023-01-29T05:16:42;99385.28;;;-2.17;100.00
65276;BME280;51875;49.994;14.052;2023-01-29T05:17:58;99386.66;;;-2.25;100.00
65276;BME280;51875;49.994;14.052;2023-01-29T05:19:17;99384.19;;;-2.23;100.00
65276;BME280;51875;49.994;14.052;2023-01-29T05:20:35;99381.69;;;-2.22;100.00
65276;BME280;51875;49.994;14.052;2023-01-29T05:21:51;99380.72;;;-2.24;100.00
65276;BME280;51875;49.994;14.052;2023-01-29T05:23:18;99375.66;;;-2.22;100.00
65276;BME280;51875;49.994;14.052;2023-01-29T05:24:34;99383.44;;;-2.21;100.00
65276;BME280;51875;49.994;14.052;2023-01-29T05:25:50;99383.66;;;-2.15;100.00
65276;BME280;51875;49.994;14.052;2023-01-29T05:27:23;99383.28;;;-2.24;100.00
65276;BME280;51875;49.994;14.052;2023-01-29T05:29:01;99378.41;;;-2.18;100.00
65276;BME280;51875;49.994;14.052;2023-01-29T05:30:17;99386.59;;;-2.05;100.00
65276;BME280;51875;49.994;14.052;2023-01-29T05:31:32;99383.34;;;-2.22;100.00
65276;BME280;51875;49.994;14.052;2023-01-29T05:32:48;99383.53;;;-2.18;100.00
65276;BME280;51875;49.994;14.052;2023-01-29T05:34:03;99382.72;;;-2.17;100.00
65276;BME280;51875;49.994;14.052;2023-01-29T05:35:19;99388.78;;;-2.15;100.00
65276;BME280;51875;49.994;14.052;2023-01-29T05:36:35;99385.94;;;-2.22;100.00
65276;BME280;51875;49.994;14.052;2023-01-29T05:37:50;99393.09;;;-2.36;100.00
65276;BME280;51875;49.994;14.052;2023-01-29T05:39:06;99388.13;;;-2.32;100.00
65276;BME280;51875;49.994;14.052;2023-01-29T05:40:22;99388.75;;;-2.16;100.00
65276;BME280;51875;49.994;14.052;2023-01-29T05:41:39;99385.44;;;-1.89;100.00
65276;BME280;51875;49.994;14.052;2023-01-29T05:42:54;99385.69;;;-2.29;100.00
65276;BME280;51875;49.994;14.052;2023-01-29T05:44:10;99387.16;;;-2.13;100.00
65276;BME280;51875;49.994;14.052;2023-01-29T05:45:26;99388.09;;;-2.33;100.00
65276;BME280;51875;49.994;14.052;2023-01-29T05:46:42;99385.72;;;-2.50;100.00
65276;BME280;51875;49.994;14.052;2023-01-29T05:47:58;99387.19;;;-2.57;100.00
65276;BME280;51875;49.994;14.052;2023-01-29T05:49:16;99382.34;;;-2.26;100.00
65276;BME280;51875;49.994;14.052;2023-01-29T05:50:32;99382.84;;;-2.36;100.00
65276;BME280;51875;49.994;14.052;2023-01-29T05:51:47;99378.41;;;-2.18;100.00
65276;BME280;51875;49.994;14.052;2023-01-29T05:53:03;99376.38;;;-2.27;100.00
65276;BME280;51875;49.994;14.052;2023-01-29T05:54:20;99378.59;;;-2.13;100.00
65276;BME280;51875;49.994;14.052;2023-01-29T05:55:35;99376.97;;;-1.88;100.00
65276;BME280;51875;49.994;14.052;2023-01-29T05:56:51;99369.91;;;-2.17;100.00
65276;BME280;51875;49.994;14.052;2023-01-29T05:58:07;99379.59;;;-2.09;100.00
65276;BME280;51875;49.994;14.052;2023-01-29T05:59:22;99368.94;;;-1.96;100.00
65276;BME280;51875;49.994;14.052;2023-01-29T06:00:38;99366.50;;;-1.93;100.00
65276;BME280;51875;49.994;14.052;2023-01-29T06:01:54;99372.34;;;-2.20;100.00
65276;BME280;51875;49.994;14.052;2023-01-29T06:03:09;99367.59;;;-2.32;100.00
65276;BME280;51875;49.994;14.052;2023-01-29T06:04:25;99368.09;;;-2.42;100.00
65276;BME280;51875;49.994;14.052;2023-01-29T06:05:41;99356.47;;;-2.32;100.00
65276;BME280;51875;49.994;14.052;2023-01-29T06:06:56;99359.22;;;-2.28;100.00
65276;BME280;51875;49.994;14.052;2023-01-29T06:08:12;99345.16;;;-2.15;100.00
65276;BME280;51875;49.994;14.052;2023-01-29T06:09:28;99348.31;;;-1.99;100.00
65276;BME280;51875;49.994;14.052;2023-01-29T06:10:43;99339.47;;;-2.07;100.00
65276;BME280;51875;49.994;14.052;2023-01-29T06:11:59;99341.78;;;-2.14;100.00
65276;BME280;51875;49.994;14.052;2023-01-29T06:13:14;99349.00;;;-2.03;100.00
65276;BME280;51875;49.994;14.052;2023-01-29T06:14:30;99338.94;;;-1.99;100.00
65276;BME280;51875;49.994;14.052;2023-01-29T06:15:46;99330.94;;;-2.06;100.00
65276;BME280;51875;49.994;14.052;2023-01-29T06:17:02;99332.59;;;-2.08;100.00
65276;BME280;51875;49.994;14.052;2023-01-29T06:18:19;99330.94;;;-2.06;100.00
65276;BME280;51875;49.994;14.052;2023-01-29T06:19:34;99325.22;;;-1.99;100.00
65276;BME280;51875;49.994;14.052;2023-01-29T06:20:50;99320.22;;;-2.19;100.00
65276;BME280;51875;49.994;14.052;2023-01-29T06:22:05;99326.63;;;-2.07;100.00
65276;BME280;51875;49.994;14.052;2023-01-29T06:23:21;99328.38;;;-2.29;100.00
65276;BME280;51875;49.994;14.052;2023-01-29T06:24:37;99332.13;;;-2.21;100.00
65276;BME280;51875;49.994;14.052;2023-01-29T06:25:52;99340.16;;;-2.34;100.00
65276;BME280;51875;49.994;14.052;2023-01-29T06:27:08;99335.00;;;-2.11;100.00
65276;BME280;51875;49.994;14.052;2023-01-29T06:28:24;99329.34;;;-2.03;100.00
65276;BME280;51875;49.994;14.052;2023-01-29T06:29:39;99337.00;;;-1.81;100.00
65276;BME280;51875;49.994;14.052;2023-01-29T06:31:00;99325.00;;;-2.05;100.00
65276;BME280;51875;49.994;14.052;2023-01-29T06:32:16;99322.88;;;-1.93;100.00
65276;BME280;51875;49.994;14.052;2023-01-29T06:33:32;99329.78;;;-2.15;100.00
65276;BME280;51875;49.994;14.052;2023-01-29T06:34:47;99338.28;;;-2.38;100.00
65276;BME280;51875;49.994;14.052;2023-01-29T06:36:03;99334.44;;;-2.27;100.00
65276;BME280;51875;49.994;14.052;2023-01-29T06:37:19;99334.91;;;-2.15;100.00
65276;BME280;51875;49.994;14.052;2023-01-29T06:38:35;99334.16;;;-2.12;100.00
65276;BME280;51875;49.994;14.052;2023-01-29T06:39:50;99335.25;;;-2.05;100.00
65276;BME280;51875;49.994;14.052;2023-01-29T06:41:08;99342.41;;;-1.96;100.00
65276;BME280;51875;49.994;14.052;2023-01-29T06:42:24;99339.28;;;-2.35;100.00
65276;BME280;51875;49.994;14.052;2023-01-29T06:43:45;99340.47;;;-2.27;100.00
65276;BME280;51875;49.994;14.052;2023-01-29T06:45:02;99343.94;;;-2.24;100.00
65276;BME280;51875;49.994;14.052;2023-01-29T06:46:18;99341.59;;;-2.18;100.00
65276;BME280;51875;49.994;14.052;2023-01-29T06:47:33;99342.66;;;-2.13;100.00
65276;BME280;51875;49.994;14.052;2023-01-29T06:48:49;99343.00;;;-2.04;100.00
65276;BME280;51875;49.994;14.052;2023-01-29T06:50:05;99344.13;;;-2.20;100.00
65276;BME280;51875;49.994;14.052;2023-01-29T06:51:21;99343.31;;;-2.19;100.00
65276;BME280;51875;49.994;14.052;2023-01-29T06:52:37;99345.34;;;-2.33;100.00
65276;BME280;51875;49.994;14.052;2023-01-29T06:53:52;99339.59;;;-2.03;100.00
65276;BME280;51875;49.994;14.052;2023-01-29T06:55:10;99343.78;;;-2.29;100.00
65276;BME280;51875;49.994;14.052;2023-01-29T06:56:26;99349.16;;;-2.23;100.00
65276;BME280;51875;49.994;14.052;2023-01-29T06:57:42;99343.25;;;-2.20;100.00
65276;BME280;51875;49.994;14.052;2023-01-29T06:58:57;99341.84;;;-2.35;100.00
65276;BME280;51875;49.994;14.052;2023-01-29T07:00:14;99346.44;;;-2.49;100.00
65276;BME280;51875;49.994;14.052;2023-01-29T07:01:30;99332.22;;;-2.18;100.00
65276;BME280;51875;49.994;14.052;2023-01-29T07:02:48;99338.06;;;-2.45;100.00
65276;BME280;51875;49.994;14.052;2023-01-29T07:04:04;99337.28;;;-2.19;100.00
65276;BME280;51875;49.994;14.052;2023-01-29T07:05:20;99344.44;;;-2.56;100.00
65276;BME280;51875;49.994;14.052;2023-01-29T07:06:35;99345.72;;;-2.67;100.00
65276;BME280;51875;49.994;14.052;2023-01-29T07:07:51;99352.63;;;-2.44;100.00
65276;BME280;51875;49.994;14.052;2023-01-29T07:09:06;99360.44;;;-2.41;100.00
65276;BME280;51875;49.994;14.052;2023-01-29T07:10:22;99360.09;;;-2.50;100.00
65276;BME280;51875;49.994;14.052;2023-01-29T07:11:38;99372.91;;;-2.50;100.00
65276;BME280;51875;49.994;14.052;2023-01-29T07:12:54;99366.81;;;-2.52;100.00
65276;BME280;51875;49.994;14.052;2023-01-29T07:14:10;99375.81;;;-2.41;100.00
65276;BME280;51875;49.994;14.052;2023-01-29T07:15:26;99365.56;;;-2.41;100.00
65276;BME280;51875;49.994;14.052;2023-01-29T07:16:42;99372.81;;;-2.30;100.00
65276;BME280;51875;49.994;14.052;2023-01-29T07:18:02;99375.19;;;-2.35;100.00
65276;BME280;51875;49.994;14.052;2023-01-29T07:19:26;99376.19;;;-2.31;100.00
65276;BME280;51875;49.994;14.052;2023-01-29T07:20:42;99379.47;;;-2.35;100.00
65276;BME280;51875;49.994;14.052;2023-01-29T07:21:57;99375.28;;;-2.32;100.00
65276;BME280;51875;49.994;14.052;2023-01-29T07:23:17;99373.50;;;-2.34;100.00
65276;BME280;51875;49.994;14.052;2023-01-29T07:24:32;99376.00;;;-2.36;100.00
65276;BME280;51875;49.994;14.052;2023-01-29T07:25:48;99378.44;;;-2.39;100.00
65276;BME280;51875;49.994;14.052;2023-01-29T07:27:04;99382.72;;;-2.61;100.00
65276;BME280;51875;49.994;14.052;2023-01-29T07:28:20;99386.66;;;-2.48;100.00
65276;BME280;51875;49.994;14.052;2023-01-29T07:29:35;99394.06;;;-2.56;100.00
65276;BME280;51875;49.994;14.052;2023-01-29T07:30:55;99398.38;;;-2.76;100.00
65276;BME280;51875;49.994;14.052;2023-01-29T07:32:11;99398.50;;;-2.73;100.00